createdAt,value
2018-01-13T00:02:20.841Z,102108.80
2018-01-13T00:04:46.833Z,102106.95
2018-01-13T00:07:12.829Z,102112.45
2018-01-13T00:09:38.825Z,102106.75
2018-01-13T00:12:04.808Z,102113.80
2018-01-13T00:14:30.866Z,102110.75
2018-01-13T00:16:56.892Z,102105.53
2018-01-13T00:19:22.887Z,102106.20
2018-01-13T00:21:48.897Z,102102.78
2018-01-13T00:24:15.005Z,102098.51
2018-01-13T00:26:41.013Z,102099.94
2018-01-13T00:29:07.024Z,102099.09
2018-01-13T00:31:33.023Z,102098.19
2018-01-13T00:33:59.168Z,102093.67
2018-01-13T00:36:25.154Z,102096.52
2018-01-13T00:38:51.152Z,102089.50
2018-01-13T00:41:17.321Z,102092.00
2018-01-13T00:43:43.453Z,102092.55
2018-01-13T00:46:09.440Z,102091.48
2018-01-13T00:48:35.516Z,102090.67
2018-01-13T00:51:01.614Z,102089.62
2018-01-13T00:53:27.601Z,102080.39
2018-01-13T00:55:53.616Z,102084.16
2018-01-13T00:58:19.605Z,102081.69
2018-01-13T01:00:45.621Z,102083.89
2018-01-13T01:03:11.618Z,102084.26
2018-01-13T01:05:37.615Z,102082.66
2018-01-13T01:08:03.809Z,102080.05
2018-01-13T01:10:29.789Z,102073.92
2018-01-13T01:12:55.789Z,102075.02
2018-01-13T01:15:21.798Z,102080.92
2018-01-13T01:17:48.029Z,102076.49
2018-01-13T01:20:14.012Z,102076.00
2018-01-13T01:22:39.990Z,102076.83
2018-01-13T01:25:06.017Z,102070.45
2018-01-13T01:27:32.255Z,102078.61
2018-01-13T01:32:29.724Z,102082.02
2018-01-13T01:34:55.723Z,102078.70
2018-01-13T01:37:21.816Z,102084.67
2018-01-13T01:39:47.832Z,102085.15
2018-01-13T01:42:13.919Z,102078.98
2018-01-13T01:44:39.938Z,102083.57
2018-01-13T01:47:05.968Z,102088.45
2018-01-13T01:49:33.008Z,102078.47
2018-01-13T01:51:59.018Z,102072.39
2018-01-13T01:54:25.371Z,102070.55
2018-01-13T01:56:51.430Z,102072.02
2018-01-13T01:59:17.424Z,102073.26
2018-01-13T02:01:43.420Z,102068.64
2018-01-13T02:04:09.546Z,102069.95
2018-01-13T02:06:35.526Z,102069.63
2018-01-13T02:09:01.514Z,102072.19
2018-01-13T02:11:27.549Z,102060.22
2018-01-13T02:13:53.543Z,102057.27
2018-01-13T02:16:19.625Z,102058.56
2018-01-13T02:18:45.625Z,102056.78
2018-01-13T02:21:11.775Z,102053.81
2018-01-13T02:23:37.833Z,102051.64
2018-01-13T02:26:03.854Z,102052.51
2018-01-13T02:28:29.822Z,102050.18
2018-01-13T02:30:55.915Z,102046.52
2018-01-13T02:33:21.891Z,102046.19
2018-01-13T02:35:47.887Z,102046.20
2018-01-13T02:38:13.883Z,102034.89
2018-01-13T02:40:40.010Z,102040.94
2018-01-13T02:43:06.051Z,102039.76
2018-01-13T02:45:32.031Z,102039.63
2018-01-13T02:47:58.050Z,102037.16
2018-01-13T02:50:24.026Z,102038.30
2018-01-13T02:52:50.008Z,102036.56
2018-01-13T02:55:16.008Z,102031.84
2018-01-13T03:05:17.763Z,102034.52
2018-01-13T03:07:43.819Z,102031.91
2018-01-13T03:10:09.783Z,102025.90
2018-01-13T03:12:35.747Z,102028.73
2018-01-13T03:15:01.727Z,102023.53
2018-01-13T03:19:59.395Z,102016.67
2018-01-13T03:22:25.377Z,102023.45
2018-01-13T03:24:51.344Z,102014.11
2018-01-13T03:27:17.339Z,102018.59
2018-01-13T03:29:43.573Z,102015.77
2018-01-13T03:32:09.574Z,102019.75
2018-01-13T03:34:35.575Z,102018.34
2018-01-13T03:37:01.554Z,102019.19
2018-01-13T03:39:27.614Z,102016.82
2018-01-13T03:41:53.799Z,102015.19
2018-01-13T03:44:19.801Z,102016.19
2018-01-13T03:46:45.804Z,102012.66
2018-01-13T03:49:12.031Z,102014.18
2018-01-13T03:51:38.033Z,102013.45
2018-01-13T03:54:04.043Z,102014.95
2018-01-13T03:56:30.064Z,102009.98
2018-01-13T03:58:56.074Z,102010.14
2018-01-13T04:01:22.085Z,102012.41
2018-01-13T04:03:48.059Z,102004.51
2018-01-13T04:06:14.080Z,102006.31
2018-01-13T04:08:40.070Z,102001.66
2018-01-13T04:11:06.080Z,102002.56
2018-01-13T04:16:08.445Z,101999.02
2018-01-13T04:18:34.464Z,101996.42
2018-01-13T04:21:00.442Z,101998.64
2018-01-13T04:23:26.437Z,101992.92
2018-01-13T04:25:52.425Z,101994.48
2018-01-13T04:28:18.417Z,101998.38
2018-01-13T04:30:44.433Z,101991.78
2018-01-13T04:33:10.424Z,101996.88
2018-01-13T04:35:36.453Z,101988.23
2018-01-13T04:38:02.444Z,101989.31
2018-01-13T04:40:28.463Z,101988.96
2018-01-13T04:42:55.540Z,101987.08
2018-01-13T04:45:21.689Z,101990.79
2018-01-13T04:47:47.655Z,101988.81
2018-01-13T04:50:13.644Z,101985.02
2018-01-13T04:52:39.697Z,101986.52
2018-01-13T04:55:05.747Z,101980.88
2018-01-13T04:57:31.818Z,101975.05
2018-01-13T04:59:57.837Z,101979.36
2018-01-13T05:02:23.846Z,101976.13
2018-01-13T05:04:49.902Z,101970.98
2018-01-13T05:07:15.937Z,101971.56
2018-01-13T05:09:41.922Z,101971.06
2018-01-13T05:12:07.936Z,101974.22
2018-01-13T05:14:33.956Z,101978.84
2018-01-13T05:16:59.981Z,101972.76
2018-01-13T05:19:25.993Z,101973.64
2018-01-13T05:21:52.059Z,101978.33
2018-01-13T05:24:18.065Z,101977.91
2018-01-13T05:26:44.041Z,101978.66
2018-01-13T05:29:10.150Z,101975.48
2018-01-13T05:31:36.186Z,101974.77
2018-01-13T05:34:02.183Z,101976.17
2018-01-13T05:36:28.201Z,101975.05
2018-01-13T05:38:54.262Z,101977.66
2018-01-13T05:41:20.240Z,101976.44
2018-01-13T05:43:46.228Z,101978.24
2018-01-13T05:46:12.227Z,101976.77
2018-01-13T05:48:38.235Z,101973.90
2018-01-13T05:51:04.282Z,101973.75
2018-01-13T05:53:30.267Z,101972.81
2018-01-13T05:55:56.319Z,101973.38
2018-01-13T05:58:22.316Z,101968.94
2018-01-13T06:00:48.312Z,101973.31
2018-01-13T06:03:14.361Z,101971.16
2018-01-13T06:05:40.343Z,101976.88
2018-01-13T06:08:06.343Z,101976.36
2018-01-13T06:10:32.334Z,101975.30
2018-01-13T06:12:58.331Z,101970.81
2018-01-13T06:15:24.323Z,101970.64
2018-01-13T06:17:50.308Z,101967.12
2018-01-13T06:20:16.330Z,101965.78
2018-01-13T06:22:42.335Z,101964.55
2018-01-13T06:25:08.309Z,101965.03
2018-01-13T06:27:34.365Z,101966.02
2018-01-13T06:30:00.365Z,101962.30
2018-01-13T06:32:26.360Z,101968.30
2018-01-13T06:34:52.332Z,101964.86
2018-01-13T06:37:18.328Z,101963.16
2018-01-13T06:39:44.329Z,101959.97
2018-01-13T06:42:10.319Z,101966.53
2018-01-13T06:44:36.340Z,101963.41
2018-01-13T06:47:02.322Z,101969.94
2018-01-13T06:49:28.319Z,101962.95
2018-01-13T06:51:54.390Z,101963.70
2018-01-13T06:54:20.372Z,101966.28
2018-01-13T06:59:23.648Z,101967.97
2018-01-13T07:01:49.638Z,101961.42
2018-01-13T07:04:15.669Z,101962.86
2018-01-13T07:06:41.633Z,101960.10
2018-01-13T07:09:07.650Z,101961.34
2018-01-13T07:11:33.625Z,101959.84
2018-01-13T07:13:59.804Z,101957.52
2018-01-13T07:16:25.800Z,101954.86
2018-01-13T07:18:51.821Z,101957.34
2018-01-13T07:21:19.838Z,101952.77
2018-01-13T07:23:46.027Z,101960.16
2018-01-13T07:26:12.009Z,101967.36
2018-01-13T07:28:38.303Z,101960.76
2018-01-13T07:31:04.513Z,101960.22
2018-01-13T07:33:30.803Z,101968.44
2018-01-13T07:35:57.304Z,101959.44
2018-01-13T07:38:24.938Z,101965.49
2018-01-13T07:40:51.051Z,101964.73
2018-01-13T07:43:17.152Z,101958.11
2018-01-13T07:45:43.189Z,101967.70
2018-01-13T07:48:09.187Z,101958.83
2018-01-13T07:50:39.784Z,101968.30
2018-01-13T07:53:05.828Z,101970.80
2018-01-13T07:55:31.868Z,101972.09
2018-01-13T07:57:58.410Z,101975.34
2018-01-13T08:00:25.408Z,101976.23
2018-01-13T08:02:51.540Z,101974.03
2018-01-13T08:05:17.530Z,101972.42
2018-01-13T08:07:43.546Z,101975.88
2018-01-13T08:10:13.526Z,101978.04
2018-01-13T08:12:39.756Z,101980.70
2018-01-13T08:15:05.924Z,101981.89
2018-01-13T08:17:32.891Z,101989.47
2018-01-13T08:19:59.297Z,101988.08
2018-01-13T08:22:26.192Z,101994.48
2018-01-13T08:24:52.254Z,101992.11
2018-01-13T08:27:21.457Z,102004.59
2018-01-13T08:29:47.710Z,101997.53
2018-01-13T08:32:13.710Z,102002.20
2018-01-13T08:34:39.986Z,102014.27
2018-01-13T08:37:07.419Z,102004.80
2018-01-13T08:39:33.564Z,102009.10
2018-01-13T08:41:59.562Z,102014.34
2018-01-13T08:44:25.563Z,102012.84
2018-01-13T08:46:51.684Z,102009.72
2018-01-13T08:49:17.783Z,102015.91
2018-01-13T08:51:44.273Z,102016.61
2018-01-13T08:54:11.745Z,102023.17
2018-01-13T08:56:38.379Z,102021.10
2018-01-13T08:59:04.740Z,102024.62
2018-01-13T09:01:30.802Z,102024.17
2018-01-13T09:03:56.829Z,102019.28
2018-01-13T09:06:22.955Z,102025.78
2018-01-13T09:08:48.941Z,102022.12
2018-01-13T09:11:14.926Z,102028.80
2018-01-13T09:13:40.905Z,102021.36
2018-01-13T09:18:40.120Z,102030.59
2018-01-13T09:21:06.130Z,102036.85
2018-01-13T09:23:32.142Z,102051.14
2018-01-13T09:25:58.283Z,102040.18
2018-01-13T09:28:24.270Z,102045.39
2018-01-13T09:30:50.283Z,102051.28
2018-01-13T09:33:16.264Z,102046.63
2018-01-13T09:35:42.259Z,102046.34
2018-01-13T09:38:08.236Z,102055.45
2018-01-13T09:40:34.217Z,102054.14
2018-01-13T09:43:00.221Z,102057.09
2018-01-13T09:45:26.330Z,102058.17
2018-01-13T09:47:52.268Z,102060.70
2018-01-13T09:50:18.271Z,102060.88
2018-01-13T09:52:44.230Z,102060.58
2018-01-13T09:55:10.180Z,102058.59
2018-01-13T09:57:36.236Z,102058.10
2018-01-13T10:00:02.203Z,102057.45
2018-01-13T10:02:28.187Z,102063.05
2018-01-13T10:04:54.156Z,102055.07
2018-01-13T10:07:20.130Z,102056.44
2018-01-13T10:09:46.134Z,102053.15
2018-01-13T10:12:18.000Z,102038.23
2018-01-13T10:14:43.983Z,102036.13
2018-01-13T10:17:09.979Z,102035.78
2018-01-13T10:19:35.941Z,102029.41
2018-01-13T10:22:02.033Z,102030.25
2018-01-13T10:24:28.027Z,102039.52
2018-01-13T10:26:53.982Z,102038.72
2018-01-13T10:29:20.066Z,102031.93
2018-01-13T10:31:46.060Z,102030.97
2018-01-13T10:34:12.072Z,102039.25
2018-01-13T10:36:38.052Z,102026.66
2018-01-13T10:39:04.077Z,102035.05
2018-01-13T10:41:30.052Z,102033.92
2018-01-13T10:43:56.040Z,102025.86
2018-01-13T10:46:22.014Z,102022.48
2018-01-13T10:48:53.622Z,102018.28
2018-01-13T10:51:19.585Z,102020.33
2018-01-13T10:53:45.548Z,102023.87
2018-01-13T10:56:11.509Z,102017.94
2018-01-13T10:58:37.482Z,102011.52
2018-01-13T11:01:03.477Z,102008.44
2018-01-13T11:03:29.448Z,102006.64
2018-01-13T11:05:55.418Z,102006.71
2018-01-13T11:08:21.373Z,102006.71
2018-01-13T11:10:47.390Z,101994.03
2018-01-13T11:13:13.379Z,102003.21
2018-01-13T11:15:39.414Z,101999.19
2018-01-13T11:18:05.382Z,101998.36
2018-01-13T11:20:31.357Z,102002.14
2018-01-13T11:22:57.340Z,101990.54
2018-01-13T11:25:23.357Z,101990.92
2018-01-13T11:27:49.385Z,101988.61
2018-01-13T11:30:15.343Z,101991.27
2018-01-13T11:32:41.987Z,101989.69
2018-01-13T11:35:10.027Z,101975.90
2018-01-13T11:37:36.020Z,101979.31
2018-01-13T11:40:02.005Z,101971.63
2018-01-13T11:42:28.030Z,101968.31
2018-01-13T11:44:54.036Z,101973.38
2018-01-13T11:47:20.065Z,101972.20
2018-01-13T11:49:46.048Z,101971.97
2018-01-13T11:52:12.005Z,101971.30
2018-01-13T11:54:37.978Z,101966.08
2018-01-13T11:57:03.990Z,101965.48
2018-01-13T11:59:29.999Z,101963.80
2018-01-13T12:01:56.892Z,101948.14
2018-01-13T12:04:22.903Z,101948.72
2018-01-13T12:06:48.856Z,101946.44
2018-01-13T12:09:14.831Z,101945.98
2018-01-13T12:11:41.914Z,101937.19
2018-01-13T12:14:09.956Z,101929.48
2018-01-13T12:16:36.018Z,101932.44
2018-01-13T12:19:01.986Z,101927.45
2018-01-13T12:21:27.993Z,101927.23
2018-01-13T12:23:53.947Z,101924.09
2018-01-13T12:26:19.924Z,101918.31
2018-01-13T12:28:45.925Z,101922.17
2018-01-13T12:31:11.906Z,101918.45
2018-01-13T12:33:37.894Z,101918.31
2018-01-13T12:36:03.863Z,101914.79
2018-01-13T12:38:29.864Z,101914.42
2018-01-13T12:40:55.864Z,101908.72
2018-01-13T12:43:21.846Z,101898.24
2018-01-13T12:45:47.793Z,101901.92
2018-01-13T12:48:14.025Z,101902.06
2018-01-13T12:50:39.974Z,101900.14
2018-01-13T12:53:05.961Z,101898.39
2018-01-13T12:55:31.919Z,101893.17
2018-01-13T12:57:57.905Z,101897.63
2018-01-13T13:00:23.999Z,101892.87
2018-01-13T13:02:49.978Z,101888.02
2018-01-13T13:05:15.950Z,101890.64
2018-01-13T13:07:41.936Z,101884.78
2018-01-13T13:10:07.886Z,101886.03
2018-01-13T13:12:33.872Z,101885.77
2018-01-13T13:14:59.870Z,101882.30
2018-01-13T13:17:25.847Z,101880.59
2018-01-13T13:19:51.839Z,101880.73
2018-01-13T13:22:17.844Z,101879.61
2018-01-13T13:24:43.824Z,101873.63
2018-01-13T13:27:09.835Z,101862.57
2018-01-13T13:29:35.870Z,101859.78
2018-01-13T13:32:01.870Z,101866.44
2018-01-13T13:34:27.839Z,101866.95
2018-01-13T13:36:53.812Z,101850.58
2018-01-13T13:39:24.566Z,101848.42
2018-01-13T13:41:50.733Z,101844.20
2018-01-13T13:44:16.788Z,101839.94
2018-01-13T13:46:42.748Z,101832.31
2018-01-13T13:49:08.737Z,101829.51
2018-01-13T13:51:34.709Z,101827.44
2018-01-13T13:54:00.798Z,101827.70
2018-01-13T13:56:26.797Z,101823.02
2018-01-13T13:58:52.810Z,101823.48
2018-01-13T14:01:28.592Z,101825.26
2018-01-13T14:03:44.774Z,101818.54
2018-01-13T14:06:10.784Z,101816.11
2018-01-13T14:08:36.811Z,101811.67
2018-01-13T14:11:02.778Z,101812.73
2018-01-13T14:13:28.773Z,101814.77
2018-01-13T14:18:26.755Z,101807.53
2018-01-13T14:20:52.748Z,101802.94
2018-01-13T14:23:18.728Z,101803.56
2018-01-13T14:25:44.802Z,101803.17
2018-01-13T14:28:10.783Z,101801.73
2018-01-13T14:30:36.762Z,101802.67
2018-01-13T14:33:02.759Z,101802.50
2018-01-13T14:35:28.761Z,101798.58
2018-01-13T14:37:55.099Z,101796.38
2018-01-13T14:40:21.892Z,101798.88
2018-01-13T14:42:48.323Z,101799.56
2018-01-13T14:45:15.449Z,101798.28
2018-01-13T14:47:42.580Z,101798.09
2018-01-13T14:50:08.785Z,101794.17
2018-01-13T14:52:34.847Z,101795.98
2018-01-13T14:55:00.813Z,101799.27
2018-01-13T14:57:26.779Z,101801.42
2018-01-13T14:59:52.752Z,101804.91
2018-01-13T15:02:18.717Z,101800.83
2018-01-13T15:04:44.678Z,101801.25
2018-01-13T15:07:10.641Z,101807.13
2018-01-13T15:09:36.595Z,101800.56
2018-01-13T15:12:02.567Z,101801.66
2018-01-13T15:14:28.497Z,101798.28
2018-01-13T15:16:54.437Z,101800.31
2018-01-13T15:19:20.378Z,101802.03
2018-01-13T15:21:46.362Z,101798.67
2018-01-13T15:24:12.305Z,101799.97
2018-01-13T15:26:38.274Z,101795.91
2018-01-13T15:29:04.221Z,101793.18
2018-01-13T15:31:30.173Z,101799.25
2018-01-13T15:33:56.113Z,101792.20
2018-01-13T15:36:22.069Z,101796.09
2018-01-13T15:38:48.041Z,101797.48
2018-01-13T15:41:14.003Z,101788.40
2018-01-13T15:43:39.936Z,101796.24
2018-01-13T15:46:05.914Z,101788.77
2018-01-13T15:48:31.874Z,101789.67
2018-01-13T15:50:57.868Z,101789.61
2018-01-13T15:53:23.805Z,101784.16
2018-01-13T15:55:49.853Z,101782.13
2018-01-13T15:58:15.821Z,101784.59
2018-01-13T16:00:41.800Z,101782.05
2018-01-13T16:03:07.752Z,101780.47
2018-01-13T16:05:33.710Z,101777.55
2018-01-13T16:07:59.679Z,101777.59
2018-01-13T16:10:25.782Z,101772.73
2018-01-13T16:12:51.740Z,101768.51
2018-01-13T16:15:17.769Z,101773.41
2018-01-13T16:17:43.744Z,101773.59
2018-01-13T16:20:09.685Z,101778.06
2018-01-13T16:22:35.641Z,101784.34
2018-01-13T16:25:01.676Z,101780.06
2018-01-13T16:27:27.626Z,101770.36
2018-01-13T16:29:53.654Z,101775.05
2018-01-13T16:32:19.609Z,101779.89
2018-01-13T16:34:45.560Z,101773.73
2018-01-13T16:37:11.514Z,101777.68
2018-01-13T16:39:37.490Z,101770.54
2018-01-13T16:42:03.458Z,101780.04
2018-01-13T16:44:29.490Z,101778.05
2018-01-13T16:46:55.429Z,101772.65
2018-01-13T16:49:21.451Z,101780.46
2018-01-13T16:51:47.421Z,101773.23
2018-01-13T16:54:13.370Z,101771.98
2018-01-13T16:56:39.329Z,101771.16
2018-01-13T16:59:05.281Z,101772.81
2018-01-13T17:01:31.314Z,101772.73
2018-01-13T17:03:57.274Z,101773.03
2018-01-13T17:06:23.209Z,101776.05
2018-01-13T17:08:49.163Z,101774.89
2018-01-13T17:11:15.129Z,101777.70
2018-01-13T17:13:41.101Z,101775.36
2018-01-13T17:16:07.052Z,101774.22
2018-01-13T17:18:33.045Z,101768.17
2018-01-13T17:20:59.005Z,101765.87
2018-01-13T17:23:25.042Z,101770.00
2018-01-13T17:25:50.984Z,101763.34
2018-01-13T17:28:16.982Z,101762.20
2018-01-13T17:30:43.938Z,101762.80
2018-01-13T17:33:09.938Z,101757.40
2018-01-13T17:35:35.896Z,101757.44
2018-01-13T17:38:01.846Z,101751.25
2018-01-13T17:40:27.857Z,101755.17
2018-01-13T17:42:53.950Z,101749.28
2018-01-13T17:45:19.894Z,101748.45
2018-01-13T17:47:45.840Z,101752.29
2018-01-13T17:50:11.811Z,101744.89
2018-01-13T17:52:37.783Z,101747.98
2018-01-13T17:55:03.736Z,101741.98
2018-01-13T17:57:29.693Z,101745.61
2018-01-13T17:59:55.654Z,101749.46
2018-01-13T18:02:21.605Z,101751.27
2018-01-13T18:04:47.668Z,101751.31
2018-01-13T18:07:13.639Z,101743.31
2018-01-13T18:09:39.589Z,101736.70
2018-01-13T18:12:05.552Z,101734.63
2018-01-13T18:14:31.502Z,101737.76
2018-01-13T18:16:57.453Z,101735.80
2018-01-13T18:19:23.454Z,101727.11
2018-01-13T18:21:49.646Z,101734.28
2018-01-13T18:24:15.657Z,101726.81
2018-01-13T18:26:41.613Z,101730.09
2018-01-13T18:29:07.677Z,101734.37
2018-01-13T18:31:33.620Z,101733.69
2018-01-13T18:33:59.573Z,101731.45
2018-01-13T18:36:25.586Z,101733.20
2018-01-13T18:38:51.573Z,101732.09
2018-01-13T18:41:17.525Z,101738.81
2018-01-13T18:43:43.473Z,101726.59
2018-01-13T18:46:09.429Z,101728.40
2018-01-13T18:48:35.435Z,101722.02
2018-01-13T18:51:01.378Z,101724.62
2018-01-13T18:53:27.397Z,101718.42
2018-01-13T18:55:53.342Z,101726.28
2018-01-13T18:58:19.305Z,101723.86
2018-01-13T19:00:45.385Z,101725.16
2018-01-13T19:03:11.357Z,101735.69
2018-01-13T19:05:37.348Z,101733.30
2018-01-13T19:08:03.250Z,101731.41
2018-01-13T19:10:29.195Z,101726.06
2018-01-13T19:12:55.134Z,101731.53
2018-01-13T19:15:21.101Z,101734.28
2018-01-13T19:17:47.045Z,101737.23
2018-01-13T19:20:13.112Z,101731.98
2018-01-13T19:22:39.056Z,101723.53
2018-01-13T19:25:05.018Z,101730.06
2018-01-13T19:27:30.978Z,101723.22
2018-01-13T19:29:57.006Z,101721.80
2018-01-13T19:32:22.977Z,101717.72
2018-01-13T19:34:48.923Z,101724.92
2018-01-13T19:37:14.890Z,101719.00
2018-01-13T19:39:40.873Z,101720.81
2018-01-13T19:42:06.917Z,101713.71
2018-01-13T19:44:32.853Z,101717.41
2018-01-13T19:46:58.807Z,101716.50
2018-01-13T19:49:24.766Z,101716.88
2018-01-13T19:51:50.731Z,101720.31
2018-01-13T19:54:16.718Z,101720.12
2018-01-13T19:56:42.689Z,101723.59
2018-01-13T19:59:08.653Z,101718.66
2018-01-13T20:01:34.627Z,101713.77
2018-01-13T20:04:00.608Z,101722.48
2018-01-13T20:06:26.548Z,101709.97
2018-01-13T20:08:52.452Z,101715.29
2018-01-13T20:11:18.407Z,101710.61
2018-01-13T20:13:44.414Z,101713.64
2018-01-13T20:16:10.388Z,101718.63
2018-01-13T20:18:36.341Z,101712.46
2018-01-13T20:21:02.312Z,101708.31
2018-01-13T20:23:28.287Z,101709.67
2018-01-13T20:25:54.221Z,101710.27
2018-01-13T20:28:20.214Z,101705.63
2018-01-13T20:30:46.205Z,101707.03
2018-01-13T20:33:12.222Z,101710.58
2018-01-13T20:35:38.136Z,101709.30
2018-01-13T20:38:04.085Z,101705.85
2018-01-13T20:40:30.032Z,101706.80
2018-01-13T20:42:55.990Z,101706.30
2018-01-13T20:45:21.992Z,101704.33
2018-01-13T20:47:48.062Z,101693.72
2018-01-13T20:50:14.006Z,101698.63
2018-01-13T20:52:39.981Z,101703.58
2018-01-13T20:55:05.947Z,101696.80
2018-01-13T20:57:31.896Z,101691.83
2018-01-13T20:59:57.849Z,101689.56
2018-01-13T21:02:23.803Z,101691.53
2018-01-13T21:04:50.485Z,101690.02
2018-01-13T21:07:16.582Z,101695.61
2018-01-13T21:09:42.509Z,101690.25
2018-01-13T21:12:08.470Z,101684.94
2018-01-13T21:14:34.413Z,101694.08
2018-01-13T21:17:00.385Z,101684.00
2018-01-13T21:19:26.382Z,101686.74
2018-01-13T21:21:52.445Z,101676.17
2018-01-13T21:24:18.418Z,101674.31
2018-01-13T21:26:44.461Z,101674.19
2018-01-13T21:29:10.473Z,101671.92
2018-01-13T21:31:36.434Z,101678.05
2018-01-13T21:34:02.369Z,101681.30
2018-01-13T21:36:28.382Z,101679.83
2018-01-13T21:38:54.345Z,101675.74
2018-01-13T21:41:20.291Z,101674.79
2018-01-13T21:43:46.261Z,101680.05
2018-01-13T21:46:12.286Z,101677.06
2018-01-13T21:48:38.311Z,101674.74
2018-01-13T21:51:04.286Z,101677.08
2018-01-13T21:53:30.229Z,101676.96
2018-01-13T21:55:56.211Z,101679.71
2018-01-13T21:58:22.217Z,101679.48
2018-01-13T22:00:48.188Z,101680.31
2018-01-13T22:03:14.129Z,101683.98
2018-01-13T22:05:40.111Z,101684.67
2018-01-13T22:08:06.138Z,101679.94
2018-01-13T22:10:32.077Z,101674.88
2018-01-13T22:12:58.100Z,101681.31
2018-01-13T22:15:24.057Z,101675.18
2018-01-13T22:17:50.053Z,101679.10
2018-01-13T22:20:16.022Z,101672.76
2018-01-13T22:22:41.983Z,101672.30
2018-01-13T22:25:07.920Z,101673.55
2018-01-13T22:27:33.872Z,101671.02
2018-01-13T22:29:59.817Z,101671.02
2018-01-13T22:32:25.803Z,101671.44
2018-01-13T22:34:51.777Z,101673.22
2018-01-13T22:37:17.782Z,101670.35
2018-01-13T22:39:43.730Z,101667.19
2018-01-13T22:42:09.709Z,101662.73
2018-01-13T22:44:35.665Z,101658.30
2018-01-13T22:47:01.605Z,101661.35
2018-01-13T22:49:27.614Z,101655.32
2018-01-13T22:51:53.606Z,101651.81
2018-01-13T22:54:19.668Z,101650.80
2018-01-13T22:56:45.680Z,101642.38
2018-01-13T22:59:11.709Z,101643.37
2018-01-13T23:01:37.666Z,101639.73
2018-01-13T23:04:03.686Z,101642.05
2018-01-13T23:06:29.644Z,101639.00
2018-01-13T23:08:55.588Z,101637.14
2018-01-13T23:11:21.570Z,101631.92
2018-01-13T23:13:47.580Z,101631.73
2018-01-13T23:16:13.609Z,101632.46
2018-01-13T23:18:39.550Z,101632.46
2018-01-13T23:21:05.508Z,101628.91
2018-01-13T23:23:31.619Z,101628.56
2018-01-13T23:25:57.580Z,101626.29
2018-01-13T23:28:23.553Z,101622.77
2018-01-13T23:30:49.497Z,101624.00
2018-01-13T23:33:15.450Z,101626.97
2018-01-13T23:35:41.393Z,101620.95
2018-01-13T23:38:07.342Z,101630.83
2018-01-13T23:40:33.281Z,101625.16
2018-01-13T23:42:59.246Z,101632.70
2018-01-13T23:45:25.629Z,101625.23
2018-01-13T23:47:51.623Z,101622.68
2018-01-13T23:50:17.577Z,101623.62
2018-01-13T23:52:43.521Z,101625.10
2018-01-13T23:55:09.489Z,101625.59
2018-01-13T23:57:35.469Z,101623.88
